createdAt,value
2022-12-25T00:00:40.351Z,5.70
2022-12-25T00:02:12.036Z,6.45
2022-12-25T00:03:44.063Z,6.05
2022-12-25T00:05:15.832Z,5.88
2022-12-25T00:06:47.577Z,5.70
2022-12-25T00:08:19.206Z,5.53
2022-12-25T00:09:50.884Z,4.90
2022-12-25T00:11:22.512Z,5.30
2022-12-25T00:12:54.140Z,6.25
2022-12-25T00:14:25.762Z,5.25
2022-12-25T00:15:57.990Z,5.15
2022-12-25T00:17:29.694Z,4.20
2022-12-25T00:19:01.311Z,4.50
2022-12-25T00:20:32.941Z,4.30
2022-12-25T00:22:04.961Z,4.63
2022-12-25T00:23:36.668Z,4.63
2022-12-25T00:25:08.789Z,3.70
2022-12-25T00:26:40.425Z,3.90
2022-12-25T00:28:12.053Z,3.72
2022-12-25T00:29:43.782Z,3.67
2022-12-25T00:31:17.894Z,3.58
2022-12-25T00:32:49.647Z,4.57
2022-12-25T00:34:21.806Z,4.10
2022-12-25T00:36:00.700Z,3.80
2022-12-25T00:37:32.369Z,4.00
2022-12-25T00:39:04.219Z,3.95
2022-12-25T00:40:43.189Z,4.55
2022-12-25T00:42:20.618Z,3.88
2022-12-25T00:43:52.162Z,4.28
2022-12-25T00:45:23.850Z,4.35
2022-12-25T00:46:55.632Z,3.53
2022-12-25T00:48:29.227Z,3.45
2022-12-25T00:50:00.848Z,3.85
2022-12-25T00:51:33.583Z,3.80
2022-12-25T00:53:05.239Z,3.22
2022-12-25T00:54:37.551Z,3.28
2022-12-25T00:56:10.716Z,3.88
2022-12-25T00:57:42.297Z,3.67
2022-12-25T00:59:14.369Z,3.30
2022-12-25T01:00:47.044Z,3.40
2022-12-25T01:02:25.039Z,3.58
2022-12-25T01:03:57.091Z,3.80
2022-12-25T01:05:28.965Z,3.58
2022-12-25T01:07:00.581Z,3.80
2022-12-25T01:08:35.600Z,3.42
2022-12-25T01:10:23.140Z,4.10
2022-12-25T01:11:54.799Z,3.30
2022-12-25T01:13:27.597Z,4.97
2022-12-25T01:14:59.594Z,3.15
2022-12-25T01:16:31.306Z,3.47
2022-12-25T01:18:07.747Z,3.83
2022-12-25T01:19:40.041Z,3.58
2022-12-25T01:21:16.196Z,3.13
2022-12-25T01:22:47.784Z,3.25
2022-12-25T01:24:19.427Z,4.95
2022-12-25T01:25:50.983Z,3.58
2022-12-25T01:27:22.618Z,2.95
2022-12-25T01:28:54.224Z,3.20
2022-12-25T01:30:25.761Z,3.45
2022-12-25T01:31:57.487Z,3.05
2022-12-25T01:33:29.546Z,3.05
2022-12-25T01:35:01.102Z,3.08
2022-12-25T01:36:32.724Z,3.28
2022-12-25T01:38:04.296Z,3.75
2022-12-25T01:39:35.870Z,3.47
2022-12-25T01:41:07.628Z,3.17
2022-12-25T01:42:39.471Z,3.95
2022-12-25T01:44:13.646Z,3.13
2022-12-25T01:45:46.471Z,3.58
2022-12-25T01:47:18.551Z,3.67
2022-12-25T01:48:51.595Z,3.13
2022-12-25T01:50:23.558Z,3.33
2022-12-25T01:52:04.235Z,3.40
2022-12-25T01:53:35.999Z,3.40
2022-12-25T01:55:10.060Z,3.63
2022-12-25T01:56:43.877Z,3.55
2022-12-25T01:58:17.040Z,3.30
2022-12-25T01:59:49.167Z,3.92
2022-12-25T02:01:21.061Z,4.18
2022-12-25T02:02:52.866Z,4.90
2022-12-25T02:04:39.641Z,4.80
2022-12-25T02:06:11.825Z,4.93
2022-12-25T02:07:44.271Z,5.53
2022-12-25T02:09:16.082Z,6.03
2022-12-25T02:10:47.961Z,6.88
2022-12-25T02:12:29.123Z,5.60
2022-12-25T02:14:01.199Z,6.30
2022-12-25T02:15:40.528Z,5.60
2022-12-25T02:17:21.054Z,5.93
2022-12-25T02:18:59.260Z,6.20
2022-12-25T02:20:36.449Z,6.70
2022-12-25T02:22:13.759Z,6.30
2022-12-25T02:23:54.536Z,6.82
2022-12-25T02:25:59.860Z,6.03
2022-12-25T02:27:37.409Z,6.90
2022-12-25T02:29:11.707Z,6.95
2022-12-25T02:30:49.956Z,6.03
2022-12-25T02:32:49.320Z,6.70
2022-12-25T02:34:42.752Z,6.93
2022-12-25T02:36:26.401Z,7.40
2022-12-25T02:38:16.644Z,7.00
2022-12-25T02:40:11.671Z,6.60
2022-12-25T02:43:43.824Z,6.70
2022-12-25T02:45:40.268Z,7.38
2022-12-25T02:47:30.570Z,6.32
2022-12-25T02:49:28.919Z,6.47
2022-12-25T02:51:23.126Z,7.10
2022-12-25T02:53:15.747Z,6.53
2022-12-25T02:55:11.522Z,6.18
2022-12-25T02:57:04.645Z,7.45
2022-12-25T02:58:57.963Z,6.63
2022-12-25T03:00:51.030Z,6.20
2022-12-25T03:02:42.776Z,6.30
2022-12-25T03:04:36.912Z,6.75
2022-12-25T03:06:29.087Z,6.95
2022-12-25T03:08:07.519Z,6.25
2022-12-25T03:10:01.928Z,5.85
2022-12-25T03:11:33.821Z,6.55
2022-12-25T03:13:28.831Z,6.32
2022-12-25T03:15:18.933Z,6.20
2022-12-25T03:16:54.014Z,6.35
2022-12-25T03:18:28.093Z,7.72
2022-12-25T03:20:18.805Z,6.32
2022-12-25T03:22:09.123Z,6.03
2022-12-25T03:24:02.657Z,6.15
2022-12-25T03:25:53.183Z,5.43
2022-12-25T03:27:29.684Z,6.18
2022-12-25T03:29:01.425Z,5.90
2022-12-25T03:31:00.433Z,5.15
2022-12-25T03:32:44.402Z,6.25
2022-12-25T03:35:04.068Z,5.20
2022-12-25T03:37:22.378Z,5.97
2022-12-25T03:39:25.456Z,6.05
2022-12-25T03:41:18.728Z,5.70
2022-12-25T03:43:15.745Z,5.95
2022-12-25T03:45:32.305Z,5.82
2022-12-25T03:47:39.289Z,4.95
2022-12-25T03:49:45.858Z,4.85
2022-12-25T03:51:40.319Z,4.75
2022-12-25T03:53:48.513Z,4.45
2022-12-25T03:55:40.456Z,5.63
2022-12-25T03:57:32.653Z,6.63
2022-12-25T03:59:24.046Z,7.43
2022-12-25T04:01:14.872Z,5.47
2022-12-25T04:03:05.114Z,6.03
2022-12-25T04:04:55.814Z,5.50
2022-12-25T04:06:46.135Z,5.55
2022-12-25T04:08:36.331Z,4.82
2022-12-25T04:10:26.922Z,5.93
2022-12-25T04:12:16.983Z,5.43
2022-12-25T04:14:11.622Z,5.47
2022-12-25T04:16:01.548Z,5.82
2022-12-25T04:17:51.842Z,5.60
2022-12-25T04:19:42.095Z,4.82
2022-12-25T04:21:32.641Z,5.93
2022-12-25T04:23:22.606Z,5.32
2022-12-25T04:25:12.983Z,5.05
2022-12-25T04:27:03.292Z,4.25
2022-12-25T04:28:53.497Z,4.50
2022-12-25T04:30:44.415Z,4.18
2022-12-25T04:32:34.858Z,4.05
2022-12-25T04:34:25.004Z,4.47
2022-12-25T04:36:14.549Z,4.07
2022-12-25T04:37:46.196Z,4.03
2022-12-25T04:39:17.925Z,4.32
2022-12-25T04:40:49.586Z,3.72
2022-12-25T04:42:21.318Z,4.78
2022-12-25T04:43:52.881Z,4.18
2022-12-25T04:45:24.431Z,4.32
2022-12-25T04:46:56.083Z,4.38
2022-12-25T04:48:29.832Z,3.95
2022-12-25T04:50:01.491Z,4.97
2022-12-25T04:51:33.060Z,4.50
2022-12-25T04:53:04.632Z,3.97
2022-12-25T04:54:37.792Z,4.22
2022-12-25T04:56:09.571Z,3.97
2022-12-25T04:57:41.234Z,5.53
2022-12-25T04:59:13.007Z,5.35
2022-12-25T05:00:44.650Z,5.25
2022-12-25T05:02:16.500Z,5.70
2022-12-25T05:03:48.288Z,4.18
2022-12-25T05:05:19.962Z,4.85
2022-12-25T05:06:51.631Z,4.75
2022-12-25T05:08:23.601Z,5.22
2022-12-25T05:09:55.198Z,6.85
2022-12-25T05:11:27.532Z,5.05
2022-12-25T05:12:59.142Z,5.38
2022-12-25T05:14:30.971Z,5.43
2022-12-25T05:16:05.795Z,5.63
2022-12-25T05:17:37.622Z,5.45
2022-12-25T05:19:09.452Z,5.57
2022-12-25T05:20:41.107Z,5.38
2022-12-25T05:22:12.693Z,5.57
2022-12-25T05:23:50.589Z,4.32
2022-12-25T05:25:22.225Z,4.68
2022-12-25T05:26:54.764Z,5.95
2022-12-25T05:28:26.333Z,4.80
2022-12-25T05:29:58.010Z,4.72
2022-12-25T05:31:29.736Z,4.82
2022-12-25T05:33:02.087Z,5.47
2022-12-25T05:34:33.709Z,5.07
2022-12-25T05:36:07.522Z,4.50
2022-12-25T05:37:39.296Z,4.63
2022-12-25T05:39:10.884Z,5.10
2022-12-25T05:40:42.672Z,4.65
2022-12-25T05:42:14.324Z,4.45
2022-12-25T05:43:45.967Z,5.80
2022-12-25T05:45:17.581Z,4.32
2022-12-25T05:46:49.229Z,4.25
2022-12-25T05:48:20.947Z,4.70
2022-12-25T05:49:52.595Z,4.43
2022-12-25T05:51:25.148Z,4.40
2022-12-25T05:52:57.706Z,4.88
2022-12-25T05:54:31.790Z,4.00
2022-12-25T05:56:05.409Z,4.15
2022-12-25T05:57:37.713Z,4.05
2022-12-25T05:59:09.313Z,3.50
2022-12-25T06:00:41.054Z,3.92
2022-12-25T06:02:12.882Z,4.95
2022-12-25T06:03:45.113Z,3.55
2022-12-25T06:05:16.841Z,3.20
2022-12-25T06:06:48.629Z,3.38
2022-12-25T06:08:20.805Z,3.20
2022-12-25T06:09:52.408Z,2.92
2022-12-25T06:11:24.175Z,4.22
2022-12-25T06:12:55.844Z,4.00
2022-12-25T06:14:27.543Z,3.85
2022-12-25T06:15:59.498Z,4.82
2022-12-25T06:17:31.143Z,4.55
2022-12-25T06:19:02.839Z,5.25
2022-12-25T06:20:34.568Z,4.50
2022-12-25T06:22:06.212Z,4.50
2022-12-25T06:23:39.491Z,4.07
2022-12-25T06:25:11.177Z,4.00
2022-12-25T06:26:42.733Z,4.03
2022-12-25T06:28:14.368Z,3.90
2022-12-25T06:29:45.979Z,3.90
2022-12-25T06:31:20.309Z,3.78
2022-12-25T06:32:51.971Z,3.58
2022-12-25T06:34:23.753Z,4.53
2022-12-25T06:35:55.457Z,3.75
2022-12-25T06:37:27.085Z,5.30
2022-12-25T06:39:01.823Z,5.00
2022-12-25T06:40:34.663Z,5.25
2022-12-25T06:42:06.270Z,4.53
2022-12-25T06:43:38.530Z,6.22
2022-12-25T06:45:10.561Z,5.47
2022-12-25T06:46:42.317Z,5.45
2022-12-25T06:48:13.923Z,5.55
2022-12-25T06:49:45.604Z,5.00
2022-12-25T06:51:24.363Z,5.20
2022-12-25T06:52:56.930Z,5.40
2022-12-25T06:54:28.647Z,6.20
2022-12-25T06:56:08.793Z,6.07
2022-12-25T06:57:40.480Z,5.75
2022-12-25T06:59:12.475Z,5.25
2022-12-25T07:00:44.071Z,6.82
2022-12-25T07:02:23.228Z,5.60
2022-12-25T07:03:57.659Z,5.28
2022-12-25T07:05:29.215Z,7.00
2022-12-25T07:07:07.959Z,5.28
2022-12-25T07:08:40.724Z,5.93
2022-12-25T07:10:12.333Z,5.85
2022-12-25T07:11:44.033Z,4.70
2022-12-25T07:13:15.575Z,5.72
2022-12-25T07:14:49.826Z,5.40
2022-12-25T07:16:21.593Z,6.03
2022-12-25T07:17:53.213Z,6.15
2022-12-25T07:19:24.975Z,6.47
2022-12-25T07:20:59.334Z,6.78
2022-12-25T07:22:31.154Z,6.18
2022-12-25T07:24:02.877Z,6.63
2022-12-25T07:25:37.442Z,6.32
2022-12-25T07:27:09.709Z,5.78
2022-12-25T07:28:41.340Z,7.65
2022-12-25T07:30:13.402Z,6.80
2022-12-25T07:31:45.222Z,6.68
2022-12-25T07:33:17.536Z,6.60
2022-12-25T07:34:49.148Z,7.30
2022-12-25T07:36:21.183Z,7.40
2022-12-25T07:37:53.348Z,6.60
2022-12-25T07:39:24.954Z,7.47
2022-12-25T07:40:56.624Z,7.68
2022-12-25T07:42:28.247Z,7.72
2022-12-25T07:43:59.921Z,7.80
2022-12-25T07:45:31.570Z,6.88
2022-12-25T07:47:03.370Z,7.85
2022-12-25T07:48:36.234Z,7.35
2022-12-25T07:50:08.219Z,7.20
2022-12-25T07:51:40.053Z,7.60
2022-12-25T07:53:11.688Z,6.93
2022-12-25T07:54:43.300Z,6.72
2022-12-25T07:56:18.838Z,6.13
2022-12-25T07:57:50.477Z,6.50
2022-12-25T07:59:22.108Z,6.35
2022-12-25T08:00:53.883Z,8.82
2022-12-25T08:02:28.915Z,6.43
2022-12-25T08:04:02.736Z,6.03
2022-12-25T08:05:34.356Z,6.10
2022-12-25T08:07:05.929Z,8.68
2022-12-25T08:08:40.108Z,7.05
2022-12-25T08:10:11.808Z,6.30
2022-12-25T08:11:47.114Z,6.95
2022-12-25T08:13:18.632Z,7.03
2022-12-25T08:14:50.274Z,7.63
2022-12-25T08:16:22.758Z,7.30
2022-12-25T08:17:54.446Z,6.60
2022-12-25T08:19:26.099Z,6.57
2022-12-25T08:21:06.018Z,6.93
2022-12-25T08:22:37.643Z,8.70
2022-12-25T08:24:09.329Z,7.13
2022-12-25T08:25:40.904Z,7.00
2022-12-25T08:27:12.521Z,6.30
2022-12-25T08:28:44.418Z,7.22
2022-12-25T08:30:16.092Z,7.05
2022-12-25T08:31:47.778Z,7.57
2022-12-25T08:33:19.393Z,8.18
2022-12-25T08:34:51.000Z,8.13
2022-12-25T08:36:23.611Z,8.05
2022-12-25T08:37:55.164Z,7.50
2022-12-25T08:39:26.822Z,8.05
2022-12-25T08:40:58.482Z,7.90
2022-12-25T08:42:30.104Z,8.98
2022-12-25T08:44:02.458Z,8.07
2022-12-25T08:45:35.435Z,6.88
2022-12-25T08:47:07.072Z,8.40
2022-12-25T08:48:42.396Z,9.57
2022-12-25T08:50:14.203Z,8.75
2022-12-25T08:51:46.024Z,7.43
2022-12-25T08:53:17.948Z,7.88
2022-12-25T08:54:49.530Z,7.30
2022-12-25T08:56:21.188Z,6.47
2022-12-25T08:57:54.247Z,6.43
2022-12-25T08:59:25.970Z,7.35
2022-12-25T09:00:57.704Z,5.72
2022-12-25T09:02:29.568Z,6.88
2022-12-25T09:04:01.329Z,7.20
2022-12-25T09:05:36.596Z,6.57
2022-12-25T09:07:08.169Z,8.45
2022-12-25T09:08:46.236Z,6.85
2022-12-25T09:10:19.632Z,7.70
2022-12-25T09:11:51.224Z,7.90
2022-12-25T09:13:22.832Z,9.00
2022-12-25T09:14:54.554Z,10.13
2022-12-25T09:16:26.565Z,8.32
2022-12-25T09:17:58.286Z,9.05
2022-12-25T09:19:30.749Z,9.02
2022-12-25T09:21:05.378Z,9.02
2022-12-25T09:22:37.027Z,7.95
2022-12-25T09:24:08.700Z,9.40
2022-12-25T09:25:40.339Z,7.57
2022-12-25T09:27:11.938Z,7.60
2022-12-25T09:28:50.651Z,8.05
2022-12-25T09:30:23.879Z,6.50
2022-12-25T09:31:55.455Z,6.55
2022-12-25T09:33:27.924Z,4.32
2022-12-25T09:34:59.488Z,5.95
2022-12-25T09:36:31.176Z,5.10
2022-12-25T09:38:02.825Z,5.57
2022-12-25T09:39:34.493Z,5.13
2022-12-25T09:41:16.097Z,4.57
2022-12-25T09:42:49.454Z,5.28
2022-12-25T09:44:44.915Z,5.40
2022-12-25T09:46:21.912Z,6.18
2022-12-25T09:47:57.024Z,5.70
2022-12-25T09:49:58.066Z,6.45
2022-12-25T09:51:33.951Z,7.43
2022-12-25T09:53:19.316Z,6.90
2022-12-25T09:55:06.711Z,7.65
2022-12-25T09:56:38.698Z,7.57
2022-12-25T09:58:15.471Z,6.80
2022-12-25T09:59:47.572Z,6.90
2022-12-25T10:01:37.790Z,6.18
2022-12-25T10:03:45.787Z,6.68
2022-12-25T10:05:21.948Z,7.32
2022-12-25T10:07:02.465Z,6.38
2022-12-25T10:08:52.704Z,7.10
2022-12-25T10:10:30.089Z,7.88
2022-12-25T10:12:35.583Z,7.55
2022-12-25T10:14:31.834Z,6.72
2022-12-25T10:16:26.677Z,6.55
2022-12-25T10:18:13.554Z,7.03
2022-12-25T10:19:53.119Z,7.18
2022-12-25T10:21:25.602Z,6.97
2022-12-25T10:23:00.552Z,6.30
2022-12-25T10:24:35.058Z,6.75
2022-12-25T10:26:18.784Z,8.27
2022-12-25T10:27:58.331Z,6.95
2022-12-25T10:29:33.443Z,6.88
2022-12-25T10:31:27.086Z,6.65
2022-12-25T10:32:59.027Z,7.10
2022-12-25T10:34:30.674Z,6.57
2022-12-25T10:36:02.839Z,5.97
2022-12-25T10:37:34.374Z,6.93
2022-12-25T10:39:06.003Z,6.10
2022-12-25T10:41:06.073Z,6.68
2022-12-25T10:42:42.473Z,6.35
2022-12-25T10:44:24.269Z,7.13
2022-12-25T10:45:55.856Z,8.25
2022-12-25T10:47:38.127Z,8.80
2022-12-25T10:50:47.432Z,6.97
2022-12-25T10:52:24.681Z,6.43
2022-12-25T10:53:56.498Z,6.72
2022-12-25T10:55:29.340Z,6.45
2022-12-25T10:57:21.974Z,7.25
2022-12-25T10:59:06.961Z,7.53
2022-12-25T11:00:38.635Z,6.95
2022-12-25T11:02:26.764Z,6.97
2022-12-25T11:03:59.049Z,8.48
2022-12-25T11:05:33.364Z,6.85
2022-12-25T11:07:15.024Z,5.93
2022-12-25T11:08:53.381Z,6.68
2022-12-25T11:10:31.387Z,5.78
2022-12-25T11:12:03.265Z,5.50
2022-12-25T11:13:39.641Z,6.72
2022-12-25T11:15:36.439Z,5.93
2022-12-25T11:17:09.731Z,5.65
2022-12-25T11:18:50.116Z,6.13
2022-12-25T11:20:22.607Z,5.43
2022-12-25T11:22:00.462Z,5.60
2022-12-25T11:23:32.882Z,5.57
2022-12-25T11:25:15.203Z,5.10
2022-12-25T11:26:50.342Z,5.13
2022-12-25T11:28:22.193Z,6.68
2022-12-25T11:30:04.736Z,6.32
2022-12-25T11:31:41.096Z,6.50
2022-12-25T11:33:14.304Z,7.18
2022-12-25T11:34:48.470Z,7.38
2022-12-25T11:36:24.318Z,6.60
2022-12-25T11:39:28.923Z,5.45
2022-12-25T11:41:04.419Z,5.55
2022-12-25T11:43:07.896Z,7.32
2022-12-25T11:44:53.328Z,5.68
2022-12-25T11:46:33.777Z,5.70
2022-12-25T11:48:15.921Z,5.65
2022-12-25T11:51:38.704Z,4.18
2022-12-25T11:53:22.247Z,4.85
2022-12-25T11:55:03.212Z,7.72
2022-12-25T11:56:36.535Z,4.80
2022-12-25T11:58:40.368Z,7.43
2022-12-25T12:00:16.549Z,4.88
2022-12-25T12:02:01.893Z,8.43
2022-12-25T12:03:37.135Z,6.97
2022-12-25T12:05:20.107Z,7.95
2022-12-25T12:07:03.973Z,5.95
2022-12-25T12:08:36.480Z,5.32
2022-12-25T12:10:18.321Z,5.53
2022-12-25T12:12:08.591Z,5.05
2022-12-25T12:13:50.044Z,6.70
2022-12-25T12:15:51.284Z,5.22
2022-12-25T12:17:23.047Z,5.70
2022-12-25T12:18:54.644Z,5.97
2022-12-25T12:20:26.343Z,6.78
2022-12-25T12:22:01.643Z,6.28
2022-12-25T12:23:46.832Z,6.45
2022-12-25T12:25:18.874Z,6.32
2022-12-25T12:27:05.912Z,6.80
2022-12-25T12:28:45.823Z,11.02
2022-12-25T12:30:31.451Z,6.13
2022-12-25T12:32:06.403Z,6.30
2022-12-25T12:33:50.599Z,5.35
2022-12-25T12:35:28.230Z,5.57
2022-12-25T12:37:24.465Z,5.50
2022-12-25T12:38:59.025Z,5.80
2022-12-25T12:40:38.847Z,5.43
2022-12-25T12:42:21.102Z,6.03
2022-12-25T12:45:31.176Z,7.05
2022-12-25T12:47:02.821Z,5.50
2022-12-25T12:48:41.357Z,5.22
2022-12-25T12:50:31.252Z,5.50
2022-12-25T12:52:05.214Z,5.22
2022-12-25T12:53:39.232Z,5.78
2022-12-25T12:55:15.062Z,5.05
2022-12-25T12:57:03.510Z,5.43
2022-12-25T12:58:37.604Z,6.82
2022-12-25T13:00:21.264Z,4.95
2022-12-25T13:02:13.555Z,6.05
2022-12-25T13:04:16.287Z,4.80
2022-12-25T13:05:52.526Z,4.78
2022-12-25T13:07:32.064Z,4.40
2022-12-25T13:09:23.037Z,4.80
2022-12-25T13:11:13.965Z,5.85
2022-12-25T13:12:46.857Z,4.13
2022-12-25T13:14:24.315Z,4.25
2022-12-25T13:15:57.616Z,4.40
2022-12-25T13:17:29.623Z,3.55
2022-12-25T13:19:06.101Z,3.92
2022-12-25T13:20:45.257Z,5.20
2022-12-25T13:22:46.445Z,3.65
2022-12-25T13:24:24.529Z,3.17
2022-12-25T13:26:01.255Z,3.35
2022-12-25T13:27:33.858Z,4.10
2022-12-25T13:29:11.346Z,4.10
2022-12-25T13:30:43.405Z,3.75
2022-12-25T13:32:30.628Z,3.75
2022-12-25T13:34:26.800Z,3.70
2022-12-25T13:35:58.819Z,4.18
2022-12-25T13:37:31.525Z,4.35
2022-12-25T13:39:03.859Z,4.95
2022-12-25T13:40:36.047Z,4.78
2022-12-25T13:42:10.037Z,4.38
2022-12-25T13:43:44.405Z,3.85
2022-12-25T13:45:24.193Z,4.03
2022-12-25T13:46:55.787Z,3.53
2022-12-25T13:48:27.502Z,3.83
2022-12-25T13:50:21.879Z,4.50
2022-12-25T13:52:10.590Z,3.40
2022-12-25T13:53:43.046Z,3.17
2022-12-25T13:55:21.547Z,3.58
2022-12-25T13:56:54.725Z,3.40
2022-12-25T13:58:29.955Z,3.75
2022-12-25T14:00:02.697Z,4.15
2022-12-25T14:01:42.863Z,3.95
2022-12-25T14:03:19.713Z,4.97
2022-12-25T14:04:51.277Z,4.07
2022-12-25T14:06:28.443Z,4.35
2022-12-25T14:08:03.265Z,4.43
2022-12-25T14:09:35.834Z,4.65
2022-12-25T14:11:08.584Z,4.85
2022-12-25T14:12:41.639Z,4.63
2022-12-25T14:14:20.769Z,4.30
2022-12-25T14:15:55.045Z,4.38
2022-12-25T14:17:27.061Z,4.82
2022-12-25T14:19:03.710Z,4.65
2022-12-25T14:20:39.982Z,5.05
2022-12-25T14:22:18.884Z,5.57
2022-12-25T14:23:50.880Z,4.68
2022-12-25T14:25:31.261Z,4.68
2022-12-25T14:27:05.689Z,5.85
2022-12-25T14:28:37.735Z,5.45
2022-12-25T14:30:12.916Z,5.18
2022-12-25T14:31:46.816Z,4.95
2022-12-25T14:33:22.919Z,5.72
2022-12-25T14:34:59.538Z,6.43
2022-12-25T14:36:33.225Z,5.80
2022-12-25T14:38:05.820Z,5.93
2022-12-25T14:39:38.396Z,5.60
2022-12-25T14:41:25.809Z,5.22
2022-12-25T14:43:03.696Z,5.05
2022-12-25T14:44:39.467Z,5.70
2022-12-25T14:46:24.095Z,4.97
2022-12-25T14:47:59.253Z,5.38
2022-12-25T14:49:32.457Z,5.10
2022-12-25T14:51:09.102Z,5.13
2022-12-25T14:52:45.385Z,5.60
2022-12-25T14:54:23.160Z,5.45
2022-12-25T14:55:55.372Z,5.80
2022-12-25T14:57:37.792Z,7.18
2022-12-25T14:59:19.027Z,5.05
2022-12-25T15:00:57.613Z,6.22
2022-12-25T15:02:44.338Z,5.57
2022-12-25T15:04:18.113Z,5.63
2022-12-25T15:06:03.694Z,4.95
2022-12-25T15:07:35.358Z,5.50
2022-12-25T15:09:15.302Z,5.05
2022-12-25T15:10:59.697Z,13.77
2022-12-25T15:12:32.968Z,12.13
2022-12-25T15:14:04.604Z,9.48
2022-12-25T15:15:36.381Z,8.52
2022-12-25T15:17:29.494Z,8.65
2022-12-25T15:19:01.994Z,5.47
2022-12-25T15:20:34.693Z,6.63
2022-12-25T15:22:06.332Z,5.40
2022-12-25T15:23:37.951Z,9.52
2022-12-25T15:25:14.763Z,8.02
2022-12-25T15:26:46.625Z,5.72
2022-12-25T15:28:18.456Z,5.55
2022-12-25T15:31:44.415Z,5.10
2022-12-25T15:33:18.260Z,5.18
2022-12-25T15:34:50.553Z,7.85
2022-12-25T15:36:23.303Z,5.03
2022-12-25T15:37:54.865Z,5.13
2022-12-25T15:39:26.572Z,5.72
2022-12-25T15:40:58.270Z,5.88
2022-12-25T15:42:30.863Z,5.95
2022-12-25T15:44:03.973Z,5.00
2022-12-25T15:45:35.747Z,5.45
2022-12-25T15:47:10.042Z,5.75
2022-12-25T15:48:41.793Z,6.57
2022-12-25T15:50:13.508Z,5.90
2022-12-25T15:51:46.223Z,5.50
2022-12-25T15:53:17.876Z,6.35
2022-12-25T15:54:49.452Z,6.43
2022-12-25T15:56:22.309Z,6.57
2022-12-25T15:57:54.635Z,6.18
2022-12-25T15:59:26.180Z,6.05
2022-12-25T16:00:57.869Z,6.50
2022-12-25T16:02:29.571Z,6.68
2022-12-25T16:04:01.277Z,6.15
2022-12-25T16:05:32.840Z,6.93
2022-12-25T16:07:04.491Z,6.57
2022-12-25T16:08:36.007Z,6.38
2022-12-25T16:10:14.443Z,6.30
2022-12-25T16:11:46.569Z,8.05
2022-12-25T16:13:18.193Z,6.65
2022-12-25T16:14:49.701Z,6.57
2022-12-25T16:16:22.770Z,6.93
2022-12-25T16:17:54.400Z,7.50
2022-12-25T16:19:25.979Z,6.90
2022-12-25T16:20:59.199Z,7.05
2022-12-25T16:22:31.964Z,6.18
2022-12-25T16:24:04.017Z,6.13
2022-12-25T16:25:35.682Z,6.15
2022-12-25T16:27:07.343Z,4.80
2022-12-25T16:28:39.034Z,5.22
2022-12-25T16:30:14.962Z,5.07
2022-12-25T16:31:48.119Z,5.65
2022-12-25T16:33:19.788Z,5.18
2022-12-25T16:34:51.378Z,5.20
2022-12-25T16:36:26.855Z,7.50
2022-12-25T16:39:30.535Z,5.53
2022-12-25T16:41:02.233Z,5.38
2022-12-25T16:42:34.116Z,5.65
2022-12-25T16:44:09.554Z,5.53
2022-12-25T16:45:41.316Z,5.80
2022-12-25T16:47:12.940Z,5.20
2022-12-25T16:48:44.853Z,7.32
2022-12-25T16:50:16.611Z,5.82
2022-12-25T16:51:48.301Z,5.60
2022-12-25T16:53:19.809Z,6.82
2022-12-25T16:54:51.360Z,5.82
2022-12-25T16:56:28.290Z,7.05
2022-12-25T16:58:00.816Z,8.88
2022-12-25T16:59:33.043Z,10.18
2022-12-25T17:01:09.862Z,9.80
2022-12-25T17:02:41.596Z,9.55
2022-12-25T17:04:13.577Z,10.73
2022-12-25T17:05:45.151Z,8.00
2022-12-25T17:07:17.351Z,9.52
2022-12-25T17:08:50.171Z,8.52
2022-12-25T17:10:21.786Z,7.90
2022-12-25T17:11:53.346Z,8.20
2022-12-25T17:13:24.976Z,8.55
2022-12-25T17:14:56.563Z,10.30
2022-12-25T17:16:31.991Z,8.18
2022-12-25T17:18:03.725Z,8.32
2022-12-25T17:19:35.493Z,8.35
2022-12-25T17:21:07.352Z,8.93
2022-12-25T17:22:38.983Z,8.65
2022-12-25T17:24:10.541Z,8.40
2022-12-25T17:25:42.162Z,8.77
2022-12-25T17:27:14.126Z,10.35
2022-12-25T17:28:45.902Z,8.10
2022-12-25T17:30:17.457Z,8.40
2022-12-25T17:31:49.169Z,8.45
2022-12-25T17:33:20.886Z,7.60
2022-12-25T17:34:52.506Z,7.80
2022-12-25T17:36:24.276Z,7.90
2022-12-25T17:37:55.854Z,7.63
2022-12-25T17:39:27.723Z,7.32
2022-12-25T17:41:01.238Z,6.90
2022-12-25T17:42:33.088Z,6.85
2022-12-25T17:44:04.963Z,8.93
2022-12-25T17:45:37.546Z,6.97
2022-12-25T17:47:09.163Z,7.50
2022-12-25T17:48:40.976Z,7.60
2022-12-25T17:50:12.597Z,8.10
2022-12-25T17:51:44.923Z,8.65
2022-12-25T17:53:16.527Z,9.43
2022-12-25T17:54:48.134Z,9.20
2022-12-25T17:56:21.943Z,9.77
2022-12-25T17:57:53.518Z,9.93
2022-12-25T17:59:29.477Z,10.50
2022-12-25T18:02:43.817Z,9.38
2022-12-25T18:04:15.612Z,9.52
2022-12-25T18:05:47.804Z,9.77
2022-12-25T18:07:19.492Z,10.45
2022-12-25T18:08:51.349Z,10.15
2022-12-25T18:10:22.900Z,9.88
2022-12-25T18:11:54.872Z,9.50
2022-12-25T18:13:26.642Z,9.20
2022-12-25T18:14:58.294Z,9.00
2022-12-25T18:16:33.124Z,9.48
2022-12-25T18:18:05.317Z,10.18
2022-12-25T18:19:36.952Z,9.75
2022-12-25T18:21:08.880Z,8.90
2022-12-25T18:22:40.483Z,9.93
2022-12-25T18:24:12.408Z,10.52
2022-12-25T18:25:44.142Z,9.95
2022-12-25T18:27:15.787Z,9.77
2022-12-25T18:28:48.726Z,10.90
2022-12-25T18:30:21.021Z,9.55
2022-12-25T18:31:52.818Z,9.75
2022-12-25T18:33:26.713Z,9.75
2022-12-25T18:34:58.335Z,9.48
2022-12-25T18:36:30.404Z,11.10
2022-12-25T18:38:02.000Z,11.95
2022-12-25T18:39:33.652Z,9.27
2022-12-25T18:41:08.066Z,9.30
2022-12-25T18:42:39.820Z,8.48
2022-12-25T18:44:11.375Z,9.10
2022-12-25T18:45:43.110Z,8.18
2022-12-25T18:47:14.672Z,9.23
2022-12-25T18:48:46.445Z,9.23
2022-12-25T18:50:18.116Z,8.60
2022-12-25T18:51:49.835Z,7.07
2022-12-25T18:53:21.471Z,5.72
2022-12-25T18:54:53.156Z,7.32
2022-12-25T18:56:24.809Z,5.20
2022-12-25T18:57:56.488Z,6.10
2022-12-25T18:59:29.690Z,5.70
2022-12-25T19:01:01.515Z,5.75
2022-12-25T19:02:33.335Z,4.68
2022-12-25T19:04:06.178Z,5.13
2022-12-25T19:05:41.108Z,5.07
2022-12-25T19:07:12.705Z,5.55
2022-12-25T19:08:44.655Z,4.97
2022-12-25T19:10:16.290Z,5.22
2022-12-25T19:11:47.900Z,6.68
2022-12-25T19:13:19.517Z,6.15
2022-12-25T19:14:51.290Z,7.30
2022-12-25T19:16:22.922Z,6.70
2022-12-25T19:17:54.508Z,4.63
2022-12-25T19:19:26.591Z,5.75
2022-12-25T19:21:02.799Z,5.20
2022-12-25T19:22:34.385Z,6.35
2022-12-25T19:24:06.362Z,5.57
2022-12-25T19:25:39.798Z,5.55
2022-12-25T19:27:11.512Z,5.70
2022-12-25T19:28:43.147Z,5.32
2022-12-25T19:30:14.816Z,5.53
2022-12-25T19:31:46.598Z,6.57
2022-12-25T19:33:18.936Z,6.72
2022-12-25T19:34:50.649Z,6.78
2022-12-25T19:36:22.271Z,6.07
2022-12-25T19:37:53.912Z,7.10
2022-12-25T19:39:25.560Z,7.25
2022-12-25T19:41:00.951Z,7.15
2022-12-25T19:42:32.817Z,7.47
2022-12-25T19:44:05.566Z,6.55
2022-12-25T19:45:37.230Z,9.80
2022-12-25T19:47:10.400Z,8.13
2022-12-25T19:48:42.099Z,7.90
2022-12-25T19:50:13.786Z,7.57
2022-12-25T19:51:46.285Z,8.82
2022-12-25T19:53:18.457Z,7.57
2022-12-25T19:54:53.146Z,7.95
2022-12-25T19:56:26.448Z,8.80
2022-12-25T19:57:59.173Z,7.47
2022-12-25T19:59:30.859Z,7.72
2022-12-25T20:01:06.044Z,7.05
2022-12-25T20:02:37.760Z,7.22
2022-12-25T20:04:10.432Z,7.53
2022-12-25T20:05:44.690Z,8.90
2022-12-25T20:07:16.287Z,8.82
2022-12-25T20:08:49.451Z,8.38
2022-12-25T20:10:21.448Z,8.82
2022-12-25T20:11:53.174Z,8.70
2022-12-25T20:13:24.831Z,8.70
2022-12-25T20:14:56.449Z,8.68
2022-12-25T20:16:28.292Z,9.90
2022-12-25T20:17:59.906Z,7.82
2022-12-25T20:19:31.507Z,8.93
2022-12-25T20:21:14.012Z,8.82
2022-12-25T20:22:45.607Z,8.93
2022-12-25T20:24:17.230Z,9.10
2022-12-25T20:25:48.850Z,9.50
2022-12-25T20:27:20.475Z,10.48
2022-12-25T20:28:52.616Z,8.73
2022-12-25T20:30:24.152Z,10.55
2022-12-25T20:31:55.811Z,10.25
2022-12-25T20:33:27.491Z,9.52
2022-12-25T20:34:59.180Z,9.45
2022-12-25T20:36:36.296Z,10.43
2022-12-25T20:38:08.201Z,8.77
2022-12-25T20:39:39.802Z,8.82
2022-12-25T20:41:30.479Z,8.63
2022-12-25T20:43:02.253Z,8.18
2022-12-25T20:44:33.940Z,9.23
2022-12-25T20:46:06.267Z,7.97
2022-12-25T20:47:38.044Z,8.90
2022-12-25T20:49:09.775Z,9.23
2022-12-25T20:50:41.381Z,10.13
2022-12-25T20:52:13.051Z,9.35
2022-12-25T20:53:45.220Z,8.10
2022-12-25T20:55:16.993Z,8.15
2022-12-25T20:56:48.777Z,7.93
2022-12-25T20:58:20.395Z,8.73
2022-12-25T20:59:52.161Z,10.32
2022-12-25T21:01:24.370Z,8.40
2022-12-25T21:02:56.202Z,9.02
2022-12-25T21:04:27.877Z,7.90
2022-12-25T21:05:59.753Z,7.90
2022-12-25T21:07:31.759Z,9.40
2022-12-25T21:09:03.519Z,9.75
2022-12-25T21:10:35.463Z,9.15
2022-12-25T21:12:07.904Z,9.57
2022-12-25T21:13:42.769Z,9.50
2022-12-25T21:15:15.847Z,8.88
2022-12-25T21:16:47.792Z,9.35
2022-12-25T21:18:21.753Z,10.18
2022-12-25T21:19:53.325Z,10.77
2022-12-25T21:21:25.423Z,12.00
2022-12-25T21:22:57.250Z,10.98
2022-12-25T21:24:28.816Z,13.15
2022-12-25T21:26:08.247Z,10.35
2022-12-25T21:27:39.812Z,11.57
2022-12-25T21:29:11.437Z,10.77